Time;durP1;ratioP1;P1;durP2;ratioP2;P2;SDS_P1;SDS_P2;PMS_P1;PMS_P2;Temp;Humidity;BMP_temperature;BMP_pressure;BME280_temperature;BME280_humidity;BME280_pressure;Samples;Min_cycle;Max_cycle;Signal;HPM_P1;HPM_P2
2021/09/01 00:00:11;;;;;;;37.90;20.55;;;;;;;-145.01;100.00;64805.59;4984101;28;20030;-64
2021/09/01 00:02:36;;;;;;;43.92;22.08;;;;;;;-145.01;100.00;64805.59;4982296;28;20062;-64
2021/09/01 00:05:02;;;;;;;47.95;22.88;;;;;;;-145.01;100.00;64805.59;4986677;28;20054;-64
2021/09/01 00:07:27;;;;;;;40.55;23.33;;;;;;;-145.01;100.00;64805.59;4982804;28;20042;-64
2021/09/01 00:09:52;;;;;;;48.05;23.40;;;;;;;-145.01;100.00;64805.59;4986205;28;20042;-64
2021/09/01 00:12:18;;;;;;;39.80;24.30;;;;;;;-145.01;100.00;64805.59;4955881;28;20481;-64
2021/09/01 00:14:43;;;;;;;47.78;25.40;;;;;;;-145.01;100.00;64805.59;4981686;28;20042;-64
2021/09/01 00:17:09;;;;;;;45.90;24.65;;;;;;;-145.01;100.00;64805.59;4981226;28;20409;-64
2021/09/01 00:19:34;;;;;;;50.45;26.20;;;;;;;-145.01;100.00;64805.59;5016962;28;20109;-64
2021/09/01 00:22:00;;;;;;;51.80;26.77;;;;;;;-145.01;100.00;64805.59;5012674;28;20043;-64
2021/09/01 00:24:25;;;;;;;50.05;27.02;;;;;;;-145.01;100.00;64805.59;4984053;28;20031;-64
2021/09/01 00:26:51;;;;;;;44.83;26.20;;;;;;;-145.01;100.00;64805.59;4989224;28;20050;-64
2021/09/01 00:29:16;;;;;;;50.88;26.83;;;;;;;-145.01;100.00;64805.59;4992071;28;20038;-64
2021/09/01 00:31:42;;;;;;;51.65;27.45;;;;;;;-145.01;100.00;64805.59;4980694;28;20118;-64
2021/09/01 00:34:07;;;;;;;52.55;27.98;;;;;;;-145.01;100.00;64805.59;4992244;28;20097;-64
2021/09/01 00:36:33;;;;;;;49.85;28.02;;;;;;;-145.01;100.00;64805.59;4984823;28;20042;-64
2021/09/01 00:38:58;;;;;;;54.58;28.05;;;;;;;-145.01;100.00;64805.59;4990338;28;20047;-64
2021/09/01 00:41:24;;;;;;;50.90;26.92;;;;;;;-145.01;100.00;64805.59;4986339;28;20038;-64
2021/09/01 00:43:53;;;;;;;54.50;28.38;;;;;;;-145.01;100.00;64805.59;4983444;28;20022;-64
2021/09/01 00:46:19;;;;;;;60.17;29.40;;;;;;;-145.01;100.00;64805.59;4961598;28;20125;-64
2021/09/01 00:48:45;;;;;;;63.90;29.70;;;;;;;-145.01;100.00;64805.59;4988814;28;20030;-64
2021/09/01 00:51:10;;;;;;;54.03;29.38;;;;;;;-145.01;100.00;64805.59;4986325;28;20081;-64
2021/09/01 00:53:38;;;;;;;60.28;29.38;;;;;;;-145.01;100.00;64805.59;4986510;28;20030;-64
2021/09/01 00:56:03;;;;;;;67.68;29.48;;;;;;;-145.01;100.00;64805.59;4978839;28;20042;-64
2021/09/01 00:58:34;;;;;;;59.20;29.52;;;;;;;-145.01;100.00;64805.59;4983849;28;20440;-64
2021/09/01 01:03:28;;;;;;;65.72;32.35;;;;;;;-145.01;100.00;64805.59;4983311;28;20039;-64
2021/09/01 01:05:57;;;;;;;69.13;33.83;;;;;;;-145.01;100.00;64805.59;4983840;28;20374;-64
2021/09/01 01:08:25;;;;;;;68.28;32.60;;;;;;;-145.01;100.00;64805.59;4981702;28;20034;-64
2021/09/01 01:10:51;;;;;;;66.88;31.55;;;;;;;-145.01;100.00;64805.59;4980932;28;20401;-64
2021/09/01 01:13:16;;;;;;;75.32;33.63;;;;;;;-145.01;100.00;64805.59;4988022;28;20022;-64
2021/09/01 01:15:42;;;;;;;84.40;34.13;;;;;;;-145.01;100.00;64805.59;4993524;28;20509;-64
2021/09/01 01:18:09;;;;;;;70.18;31.88;;;;;;;-145.01;100.00;64805.59;4986395;28;20038;-63
2021/09/01 01:20:35;;;;;;;66.30;32.17;;;;;;;-145.01;100.00;64805.59;5001222;28;20138;-64
2021/09/01 01:23:00;;;;;;;86.20;36.95;;;;;;;-145.01;100.00;64805.59;4991741;28;20209;-64
2021/09/01 01:25:36;;;;;;;75.13;34.15;;;;;;;-145.01;100.00;64805.59;4985779;28;20093;-64
2021/09/01 01:28:01;;;;;;;80.93;37.08;;;;;;;-145.01;100.00;64805.59;4990226;28;20432;-64
2021/09/01 01:30:27;;;;;;;78.22;37.65;;;;;;;-145.01;100.00;64805.59;4983801;28;20046;-64
2021/09/01 01:32:53;;;;;;;95.45;40.00;;;;;;;-145.01;100.00;64805.59;4991553;28;20030;-64
2021/09/01 01:35:24;;;;;;;90.35;41.50;;;;;;;-145.01;100.00;64805.59;4981921;28;20243;-64
2021/09/01 01:37:49;;;;;;;103.80;41.75;;;;;;;-145.01;100.00;64805.59;4984403;28;20126;-64
2021/09/01 01:40:14;;;;;;;92.18;40.92;;;;;;;-145.01;100.00;64805.59;4986503;28;20037;-64
2021/09/01 01:42:41;;;;;;;97.45;43.05;;;;;;;-145.01;100.00;64805.59;4988640;28;20030;-64
2021/09/01 01:45:07;;;;;;;93.72;41.15;;;;;;;-145.01;100.00;64805.59;4984585;28;20023;-64
2021/09/01 01:47:33;;;;;;;102.20;42.60;;;;;;;-145.01;100.00;64805.59;4989888;28;20118;-64
2021/09/01 01:49:58;;;;;;;101.88;46.20;;;;;;;-145.01;100.00;64805.59;5003285;28;20097;-64
2021/09/01 01:52:24;;;;;;;108.45;44.92;;;;;;;-145.01;100.00;64805.59;4994048;28;20042;-64
2021/09/01 01:54:49;;;;;;;116.28;47.70;;;;;;;-145.01;100.00;64805.59;4983482;28;20022;-64
2021/09/01 01:57:15;;;;;;;113.03;44.83;;;;;;;-145.01;100.00;64805.59;4986783;28;20034;-64
2021/09/01 01:59:40;;;;;;;113.60;46.25;;;;;;;-145.01;100.00;64805.59;5021971;28;20031;-64
2021/09/01 02:02:05;;;;;;;115.30;47.58;;;;;;;-145.01;100.00;64805.59;4990366;28;20076;-64
2021/09/01 02:04:31;;;;;;;107.78;45.70;;;;;;;-145.01;100.00;64805.59;4986361;28;20026;-64
2021/09/01 02:06:56;;;;;;;117.65;45.42;;;;;;;-145.01;100.00;64805.59;4985721;28;20034;-64
2021/09/01 02:09:22;;;;;;;113.13;46.53;;;;;;;-145.01;100.00;64805.59;4985488;28;20072;-64
2021/09/01 02:11:47;;;;;;;127.05;49.25;;;;;;;-145.01;100.00;64805.59;4991976;28;20034;-64
2021/09/01 02:14:12;;;;;;;141.70;49.47;;;;;;;-145.01;100.00;64805.59;4987293;28;20030;-63
2021/09/01 02:16:38;;;;;;;137.02;49.70;;;;;;;-145.01;100.00;64805.59;4987956;28;20030;-64
2021/09/01 02:19:03;;;;;;;133.45;51.28;;;;;;;-145.01;100.00;64805.59;4982781;28;20120;-64
2021/09/01 02:21:29;;;;;;;141.77;49.55;;;;;;;-145.01;100.00;64805.59;4988176;28;20454;-64
2021/09/01 02:23:54;;;;;;;130.80;48.67;;;;;;;-145.01;100.00;64805.59;4991581;28;20022;-64
2021/09/01 02:26:19;;;;;;;126.45;49.38;;;;;;;-145.01;100.00;64805.59;4976966;28;20556;-64
2021/09/01 02:28:45;;;;;;;119.00;49.03;;;;;;;-145.01;100.00;64805.59;4990818;28;20026;-64
2021/09/01 02:31:10;;;;;;;133.52;48.60;;;;;;;-145.01;100.00;64805.59;4988674;28;20045;-64
2021/09/01 02:33:36;;;;;;;123.85;49.20;;;;;;;-145.01;100.00;64805.59;4985645;28;20038;-64
2021/09/01 02:36:01;;;;;;;124.47;48.22;;;;;;;-145.01;100.00;64805.59;4987377;28;20134;-64
2021/09/01 02:38:27;;;;;;;132.52;48.55;;;;;;;-145.01;100.00;64805.59;4978125;28;20493;-64
2021/09/01 02:40:52;;;;;;;133.70;48.88;;;;;;;-145.01;100.00;64805.59;4993488;28;20050;-64
2021/09/01 02:43:17;;;;;;;135.68;50.08;;;;;;;-145.01;100.00;64805.59;4987186;28;20035;-64
2021/09/01 02:45:43;;;;;;;130.10;49.45;;;;;;;-145.01;100.00;64805.59;4989058;28;20157;-64
2021/09/01 02:48:08;;;;;;;134.07;49.78;;;;;;;-145.01;100.00;64805.59;4983391;28;20035;-64
2021/09/01 02:50:34;;;;;;;131.93;48.10;;;;;;;-145.01;100.00;64805.59;4990202;28;20046;-63
2021/09/01 02:52:59;;;;;;;137.02;48.28;;;;;;;-145.01;100.00;64805.59;4983837;28;20022;-63
2021/09/01 02:55:24;;;;;;;130.27;47.83;;;;;;;-145.01;100.00;64805.59;4987271;28;20042;-63
2021/09/01 02:57:50;;;;;;;126.78;47.95;;;;;;;-145.01;100.00;64805.59;4989155;28;20038;-63
2021/09/01 03:00:15;;;;;;;132.45;47.55;;;;;;;-145.01;100.00;64805.59;4988534;28;20022;-63
2021/09/01 03:02:41;;;;;;;139.65;48.53;;;;;;;-145.01;100.00;64805.59;4981221;28;20397;-63
2021/09/01 03:05:06;;;;;;;135.98;48.00;;;;;;;-145.01;100.00;64805.59;4987447;28;20084;-64
2021/09/01 03:07:32;;;;;;;127.57;46.60;;;;;;;-145.01;100.00;64805.59;4990759;28;20077;-64
2021/09/01 03:09:57;;;;;;;139.57;49.47;;;;;;;-145.01;100.00;64805.59;4988831;28;20034;-64
2021/09/01 03:12:23;;;;;;;128.85;47.92;;;;;;;-145.01;100.00;64805.59;4991903;28;20512;-64
2021/09/01 03:14:49;;;;;;;141.40;51.13;;;;;;;-145.01;100.00;64805.59;4993453;28;20473;-63
2021/09/01 03:17:14;;;;;;;129.50;46.72;;;;;;;-145.01;100.00;64805.59;4989225;28;20034;-63
2021/09/01 03:19:39;;;;;;;138.57;50.05;;;;;;;-145.01;100.00;64805.59;4996370;28;20041;-64
2021/09/01 03:22:05;;;;;;;124.78;47.03;;;;;;;-145.01;100.00;64805.59;4994090;28;20081;-63
2021/09/01 03:24:30;;;;;;;133.88;47.85;;;;;;;-145.01;100.00;64805.59;4994692;28;20022;-63
2021/09/01 03:26:56;;;;;;;136.15;46.15;;;;;;;-145.01;100.00;64805.59;4993965;28;20035;-63
2021/09/01 03:29:21;;;;;;;146.40;48.42;;;;;;;-145.01;100.00;64805.59;4994568;28;20034;-63
2021/09/01 03:31:46;;;;;;;129.07;47.75;;;;;;;-145.01;100.00;64805.59;4992859;28;20038;-64
2021/09/01 03:34:12;;;;;;;136.43;49.10;;;;;;;-145.01;100.00;64805.59;4994298;28;20034;-63
2021/09/01 03:36:37;;;;;;;141.98;50.35;;;;;;;-145.01;100.00;64805.59;4992334;28;20397;-64
2021/09/01 03:39:03;;;;;;;145.18;50.10;;;;;;;-145.01;100.00;64805.59;4992375;28;20473;-64
2021/09/01 03:41:28;;;;;;;145.10;49.17;;;;;;;-145.01;100.00;64805.59;4989448;28;20096;-64
2021/09/01 03:43:53;;;;;;;152.32;51.13;;;;;;;-145.01;100.00;64805.59;4993487;28;20026;-63
2021/09/01 03:46:19;;;;;;;152.77;50.67;;;;;;;-145.01;100.00;64805.59;4978346;28;20043;-64
2021/09/01 03:48:44;;;;;;;142.20;48.67;;;;;;;-145.01;100.00;64805.59;4984865;28;20684;-63
2021/09/01 03:51:10;;;;;;;143.85;51.03;;;;;;;-145.01;100.00;64805.59;4973711;28;20043;-64
2021/09/01 03:53:35;;;;;;;151.85;51.03;;;;;;;-145.01;100.00;64805.59;4974579;28;20461;-65
2021/09/01 03:56:01;;;;;;;146.75;50.53;;;;;;;-145.01;100.00;64805.59;4974386;28;20043;-64
2021/09/01 03:58:26;;;;;;;151.68;50.30;;;;;;;-145.01;100.00;64805.59;4974165;28;20050;-63
2021/09/01 04:00:52;;;;;;;137.70;48.38;;;;;;;-145.01;100.00;64805.59;4974317;28;20493;-64
2021/09/01 04:03:17;;;;;;;144.73;50.55;;;;;;;-145.01;100.00;64805.59;4989628;28;20069;-65
2021/09/01 04:05:42;;;;;;;150.55;50.63;;;;;;;-145.01;100.00;64805.59;4974173;28;20035;-65
2021/09/01 04:08:08;;;;;;;149.07;50.70;;;;;;;-145.01;100.00;64805.59;4974725;28;20035;-64
2021/09/01 04:10:33;;;;;;;139.00;47.03;;;;;;;-145.01;100.00;64805.59;4974080;28;20038;-65
2021/09/01 04:12:59;;;;;;;142.00;49.45;;;;;;;-145.01;100.00;64805.59;4974678;28;20034;-64
2021/09/01 04:15:24;;;;;;;143.40;48.15;;;;;;;-145.01;100.00;64805.59;4974239;28;20113;-65
2021/09/01 04:17:49;;;;;;;144.75;48.13;;;;;;;-145.01;100.00;64805.59;4973186;28;20081;-65
2021/09/01 04:20:15;;;;;;;144.40;49.03;;;;;;;-145.01;100.00;64805.59;4974175;28;20046;-65
2021/09/01 04:22:40;;;;;;;142.23;48.53;;;;;;;-145.01;100.00;64805.59;4974547;28;20025;-65
2021/09/01 04:25:07;;;;;;;136.25;49.90;;;;;;;-145.01;100.00;64805.59;4972552;28;20030;-65
2021/09/01 04:27:32;;;;;;;148.32;49.40;;;;;;;-145.01;100.00;64805.59;4986440;28;20034;-65
2021/09/01 04:29:57;;;;;;;136.95;48.60;;;;;;;-145.01;100.00;64805.59;4993761;28;20018;-64
2021/09/01 04:32:23;;;;;;;140.93;46.97;;;;;;;-145.01;100.00;64805.59;4993330;28;20038;-65
2021/09/01 04:34:48;;;;;;;145.45;47.90;;;;;;;-145.01;100.00;64805.59;4993816;28;20347;-64
2021/09/01 04:37:14;;;;;;;141.02;48.97;;;;;;;-145.01;100.00;64805.59;4993214;28;20038;-65
2021/09/01 04:39:39;;;;;;;129.98;47.17;;;;;;;-145.01;100.00;64805.59;4992398;28;20019;-64
2021/09/01 04:42:05;;;;;;;140.43;48.63;;;;;;;-145.01;100.00;64805.59;4991875;28;20034;-65
2021/09/01 04:44:30;;;;;;;139.63;49.25;;;;;;;-145.01;100.00;64805.59;4993462;28;20035;-65
2021/09/01 04:46:56;;;;;;;145.18;50.22;;;;;;;-145.01;100.00;64805.59;4993135;28;20035;-65
2021/09/01 04:49:21;;;;;;;138.20;50.63;;;;;;;-145.01;100.00;64805.59;4993612;28;20018;-65
2021/09/01 04:51:47;;;;;;;144.45;49.53;;;;;;;-145.01;100.00;64805.59;4993525;28;20035;-65
2021/09/01 04:54:13;;;;;;;139.70;50.80;;;;;;;-145.01;100.00;64805.59;4993617;28;20041;-65
2021/09/01 04:56:38;;;;;;;155.55;51.47;;;;;;;-145.01;100.00;64805.59;4975685;28;20489;-65
2021/09/01 04:59:03;;;;;;;141.35;50.15;;;;;;;-145.01;100.00;64805.59;4993669;28;20038;-65
2021/09/01 05:01:29;;;;;;;156.38;49.35;;;;;;;-145.01;100.00;64805.59;4991949;28;20045;-65
2021/09/01 05:03:54;;;;;;;148.70;48.58;;;;;;;-145.01;100.00;64805.59;4992513;28;20036;-64
2021/09/01 05:06:20;;;;;;;147.63;50.88;;;;;;;-145.01;100.00;64805.59;4993070;28;20038;-65
2021/09/01 05:08:45;;;;;;;145.02;52.13;;;;;;;-145.01;100.00;64805.59;4992249;28;20488;-65
2021/09/01 05:11:11;;;;;;;142.20;50.63;;;;;;;-145.01;100.00;64805.59;4992846;28;20046;-65
2021/09/01 05:13:36;;;;;;;149.02;51.90;;;;;;;-145.01;100.00;64805.59;4993571;28;20030;-65
2021/09/01 05:16:02;;;;;;;154.57;50.85;;;;;;;-145.01;100.00;64805.59;4991753;28;20035;-65
2021/09/01 05:18:28;;;;;;;142.45;49.03;;;;;;;-145.01;100.00;64805.59;4993379;28;20030;-65
2021/09/01 05:20:55;;;;;;;151.88;49.47;;;;;;;-145.01;100.00;64805.59;4992792;28;20049;-65
2021/09/01 05:23:20;;;;;;;149.50;50.47;;;;;;;-145.01;100.00;64805.59;4992164;28;20041;-65
2021/09/01 05:25:54;;;;;;;135.85;50.22;;;;;;;-145.01;100.00;64805.59;4975465;28;20625;-64
2021/09/01 05:28:19;;;;;;;128.70;45.28;;;;;;;-145.01;100.00;64805.59;4976030;28;20605;-65
2021/09/01 05:30:46;;;;;;;158.20;50.53;;;;;;;-145.01;100.00;64805.59;4975467;28;20023;-64
2021/09/01 05:33:11;;;;;;;142.98;48.03;;;;;;;-145.01;100.00;64805.59;4993850;28;20019;-64
2021/09/01 05:35:37;;;;;;;142.95;49.50;;;;;;;-145.01;100.00;64805.59;4992929;28;20358;-64
2021/09/01 05:38:03;;;;;;;140.32;49.25;;;;;;;-145.01;100.00;64805.59;4975740;28;20037;-64
2021/09/01 05:40:28;;;;;;;135.75;46.97;;;;;;;-145.01;100.00;64805.59;4991506;28;20374;-65
2021/09/01 05:42:54;;;;;;;152.98;50.28;;;;;;;-145.01;100.00;64805.59;4993312;28;20023;-64
2021/09/01 05:45:19;;;;;;;137.77;47.15;;;;;;;-145.01;100.00;64805.59;4991566;28;20519;-64
2021/09/01 05:47:45;;;;;;;128.20;47.10;;;;;;;-145.01;100.00;64805.59;4992022;28;20508;-65
2021/09/01 05:50:10;;;;;;;127.93;44.90;;;;;;;-145.01;100.00;64805.59;4991496;28;20057;-65
2021/09/01 05:52:36;;;;;;;116.13;42.95;;;;;;;-145.01;100.00;64805.59;4993091;28;20027;-65
2021/09/01 05:55:04;;;;;;;111.93;41.63;;;;;;;-145.01;100.00;64805.59;4992775;28;20069;-65
2021/09/01 05:57:35;;;;;;;110.00;42.67;;;;;;;-145.01;100.00;64805.59;4992978;28;20423;-65
2021/09/01 06:00:01;;;;;;;114.70;43.83;;;;;;;-145.01;100.00;64805.59;4994975;28;20102;-64
2021/09/01 06:03:04;;;;;;;109.30;42.38;;;;;;;-145.01;100.00;64805.59;4996319;28;20037;-65
2021/09/01 06:05:29;;;;;;;94.60;39.45;;;;;;;-145.01;100.00;64805.59;4996158;28;20069;-65
2021/09/01 06:07:56;;;;;;;108.80;42.33;;;;;;;-145.01;100.00;64805.59;4996606;28;20023;-65
2021/09/01 06:10:25;;;;;;;112.88;43.78;;;;;;;-145.01;100.00;64805.59;4978634;28;20125;-65
2021/09/01 06:12:55;;;;;;;117.05;42.55;;;;;;;-145.01;100.00;64805.59;4995445;28;20030;-64
2021/09/01 06:15:22;;;;;;;138.63;42.75;;;;;;;-145.01;100.00;64805.59;4995057;28;20038;-64
2021/09/01 06:17:47;;;;;;;118.90;41.50;;;;;;;-145.01;100.00;64805.59;4995255;28;20034;-64
2021/09/01 06:20:12;;;;;;;115.82;40.38;;;;;;;-145.01;100.00;64805.59;4995808;28;20026;-64
2021/09/01 06:22:38;;;;;;;123.03;43.53;;;;;;;-145.01;100.00;64805.59;4996329;28;20027;-64
2021/09/01 06:25:04;;;;;;;116.82;42.47;;;;;;;-145.01;100.00;64805.59;4995680;28;20037;-64
2021/09/01 06:27:29;;;;;;;112.95;40.80;;;;;;;-145.01;100.00;64805.59;4996188;28;20038;-64
2021/09/01 06:29:55;;;;;;;110.20;39.83;;;;;;;-145.01;100.00;64805.59;4995936;28;20554;-64
2021/09/01 06:32:21;;;;;;;107.18;40.08;;;;;;;-145.01;100.00;64805.59;4994838;28;20393;-64
2021/09/01 06:34:46;;;;;;;112.53;41.03;;;;;;;-145.01;100.00;64805.59;4996273;28;20399;-64
2021/09/01 06:37:11;;;;;;;110.63;41.28;;;;;;;-145.01;100.00;64805.59;4995423;28;20417;-64
2021/09/01 06:39:37;;;;;;;103.38;38.80;;;;;;;-145.01;100.00;64805.59;4994746;28;20477;-64
2021/09/01 06:42:03;;;;;;;87.00;37.67;;;;;;;-145.01;100.00;64805.59;4995414;28;20049;-64
2021/09/01 06:44:28;;;;;;;121.85;39.85;;;;;;;-145.01;100.00;64805.59;4994384;28;20026;-64
2021/09/01 06:46:54;;;;;;;109.15;40.10;;;;;;;-145.01;100.00;64805.59;4977965;28;20035;-64
2021/09/01 06:49:19;;;;;;;104.07;40.45;;;;;;;-145.01;100.00;64805.59;4995662;28;20035;-64
2021/09/01 06:51:44;;;;;;;104.90;39.83;;;;;;;-145.01;100.00;64805.59;4993961;28;20038;-64
2021/09/01 06:54:10;;;;;;;94.78;37.65;;;;;;;-145.01;100.00;64805.59;4994506;28;20022;-65
2021/09/01 06:56:35;;;;;;;110.22;39.25;;;;;;;-145.01;100.00;64805.59;4993919;28;20030;-64
2021/09/01 06:59:01;;;;;;;97.75;38.45;;;;;;;-145.01;100.00;64805.59;4995361;28;20053;-64
2021/09/01 07:01:26;;;;;;;91.22;36.67;;;;;;;-145.01;100.00;64805.59;4995197;28;20489;-68
2021/09/01 07:03:54;;;;;;;103.68;38.03;;;;;;;-145.01;100.00;64805.59;4994350;28;20073;-64
2021/09/01 07:06:20;;;;;;;89.38;38.67;;;;;;;-145.01;100.00;64805.59;4995041;28;20043;-64
2021/09/01 07:08:46;;;;;;;93.30;38.33;;;;;;;-145.01;100.00;64805.59;4995419;28;20026;-64
2021/09/01 07:11:11;;;;;;;87.30;37.47;;;;;;;-145.01;100.00;64805.59;4993574;28;20505;-64
2021/09/01 07:13:37;;;;;;;99.90;37.88;;;;;;;-145.01;100.00;64805.59;4995188;28;20038;-64
2021/09/01 07:16:02;;;;;;;92.07;37.33;;;;;;;-145.01;100.00;64805.59;4994798;28;20088;-64
2021/09/01 07:18:28;;;;;;;83.93;36.42;;;;;;;-145.01;100.00;64805.59;4995004;28;20392;-64
2021/09/01 07:20:53;;;;;;;85.40;33.88;;;;;;;-145.01;100.00;64805.59;4994635;28;20038;-65
2021/09/01 07:23:19;;;;;;;81.13;35.30;;;;;;;-145.01;100.00;64805.59;4995008;28;20045;-65
2021/09/01 07:25:44;;;;;;;76.78;35.35;;;;;;;-145.01;100.00;64805.59;4994730;28;20034;-65
2021/09/01 07:28:10;;;;;;;76.95;35.45;;;;;;;-145.01;100.00;64805.59;4994951;28;20025;-66
2021/09/01 07:30:35;;;;;;;73.07;34.38;;;;;;;-145.01;100.00;64805.59;4994347;28;20039;-66
2021/09/01 07:33:01;;;;;;;76.00;30.73;;;;;;;-145.01;100.00;64805.59;4995005;28;20022;-66
2021/09/01 07:35:26;;;;;;;69.28;29.50;;;;;;;-145.01;100.00;64805.59;4994487;28;20038;-66
2021/09/01 07:37:52;;;;;;;62.63;30.02;;;;;;;-145.01;100.00;64805.59;4994573;28;20029;-67
2021/09/01 07:40:19;;;;;;;68.30;28.42;;;;;;;-145.01;100.00;64805.59;4994327;28;20030;-65
2021/09/01 07:42:45;;;;;;;50.83;26.08;;;;;;;-145.01;100.00;64805.59;4993321;28;20027;-66
2021/09/01 07:45:14;;;;;;;55.50;28.05;;;;;;;-145.01;100.00;64805.59;4992913;28;20057;-66
2021/09/01 07:47:52;;;;;;;57.47;28.30;;;;;;;-145.01;100.00;64805.59;4994438;28;20109;-65
2021/09/01 07:50:19;;;;;;;63.97;27.80;;;;;;;-145.01;100.00;64805.59;4993097;28;20029;-64
2021/09/01 07:52:44;;;;;;;71.90;28.45;;;;;;;-145.01;100.00;64805.59;4994370;28;20026;-65
2021/09/01 07:55:10;;;;;;;65.35;27.85;;;;;;;-145.01;100.00;64805.59;4994103;28;20105;-64
2021/09/01 07:57:35;;;;;;;63.28;27.95;;;;;;;-145.01;100.00;64805.59;4994186;28;20389;-64
2021/09/01 08:00:01;;;;;;;66.30;29.20;;;;;;;-145.01;100.00;64805.59;4993960;28;20429;-64
2021/09/01 08:02:26;;;;;;;68.95;30.33;;;;;;;-145.01;100.00;64805.59;4994231;28;20022;-66
2021/09/01 08:04:51;;;;;;;74.25;28.23;;;;;;;-145.01;100.00;64805.59;4994273;28;20030;-66
2021/09/01 08:07:17;;;;;;;64.45;28.30;;;;;;;-145.01;100.00;64805.59;4993758;28;20070;-65
2021/09/01 08:09:42;;;;;;;65.10;30.42;;;;;;;-145.01;100.00;64805.59;4994028;28;20046;-65
2021/09/01 08:12:10;;;;;;;68.80;29.40;;;;;;;-145.01;100.00;64805.59;4992332;28;20050;-65
2021/09/01 08:14:36;;;;;;;66.65;29.13;;;;;;;-145.01;100.00;64805.59;4994349;28;20146;-65
2021/09/01 08:17:01;;;;;;;72.20;30.75;;;;;;;-145.01;100.00;64805.59;4993600;28;20117;-67
2021/09/01 08:19:27;;;;;;;72.55;31.35;;;;;;;-145.01;100.00;64805.59;4993937;28;20053;-65
2021/09/01 08:21:52;;;;;;;69.25;30.15;;;;;;;-145.01;100.00;64805.59;4993500;28;20130;-64
2021/09/01 08:24:18;;;;;;;71.70;29.92;;;;;;;-145.01;100.00;64805.59;4994036;28;20026;-64
2021/09/01 08:26:43;;;;;;;66.45;28.33;;;;;;;-145.01;100.00;64805.59;4993438;28;20042;-65
2021/09/01 08:29:08;;;;;;;66.43;28.35;;;;;;;-145.01;100.00;64805.59;4993850;28;20141;-65
2021/09/01 08:31:34;;;;;;;56.25;27.38;;;;;;;-145.01;100.00;64805.59;4993366;28;20034;-65
2021/09/01 08:33:59;;;;;;;55.42;26.40;;;;;;;-145.01;100.00;64805.59;4993809;28;20069;-65
2021/09/01 08:36:25;;;;;;;52.65;25.88;;;;;;;-145.01;100.00;64805.59;4993359;28;20038;-65
2021/09/01 08:38:50;;;;;;;57.65;26.17;;;;;;;-145.01;100.00;64805.59;4993140;28;20026;-65
2021/09/01 08:41:16;;;;;;;58.30;26.90;;;;;;;-145.01;100.00;64805.59;4992052;28;20075;-65
2021/09/01 08:43:41;;;;;;;53.97;25.20;;;;;;;-145.01;100.00;64805.59;4993706;28;20061;-65
2021/09/01 08:46:07;;;;;;;46.60;24.90;;;;;;;-145.01;100.00;64805.59;4993248;28;20050;-65
2021/09/01 08:48:33;;;;;;;50.95;24.60;;;;;;;-145.01;100.00;64805.59;4993488;28;20101;-65
2021/09/01 08:50:58;;;;;;;53.90;25.77;;;;;;;-145.01;100.00;64805.59;4991976;28;20401;-65
2021/09/01 08:53:23;;;;;;;53.17;25.80;;;;;;;-145.01;100.00;64805.59;4976069;28;20039;-65
2021/09/01 08:55:52;;;;;;;51.65;24.60;;;;;;;-145.01;100.00;64805.59;4991871;28;20093;-65
2021/09/01 08:58:17;;;;;;;53.60;26.13;;;;;;;-145.01;100.00;64805.59;4992159;28;20026;-65
2021/09/01 09:00:43;;;;;;;54.22;25.73;;;;;;;-145.01;100.00;64805.59;4993192;28;20038;-65
2021/09/01 09:03:08;;;;;;;54.08;25.50;;;;;;;-145.01;100.00;64805.59;4992334;28;20027;-65
2021/09/01 09:05:36;;;;;;;58.88;27.17;;;;;;;-145.01;100.00;64805.59;4992874;28;20494;-65
2021/09/01 09:08:06;;;;;;;45.75;22.98;;;;;;;-145.01;100.00;64805.59;4993276;28;20525;-65
2021/09/01 09:10:36;;;;;;;48.70;23.65;;;;;;;-145.01;100.00;64805.59;4975874;28;20077;-64
2021/09/01 09:13:15;;;;;;;46.83;24.23;;;;;;;-145.01;100.00;64805.59;4993496;28;20031;-64
2021/09/01 09:15:41;;;;;;;47.95;24.45;;;;;;;-145.01;100.00;64805.59;4992940;28;20034;-65
2021/09/01 09:18:25;;;;;;;46.58;23.98;;;;;;;-145.01;100.00;64805.59;4993201;28;20057;-64
2021/09/01 09:20:50;;;;;;;49.58;24.05;;;;;;;-145.01;100.00;64805.59;4992765;28;20109;-65
2021/09/01 09:23:16;;;;;;;42.10;21.48;;;;;;;-145.01;100.00;64805.59;4975671;28;20068;-64
2021/09/01 09:25:41;;;;;;;48.63;22.60;;;;;;;-145.01;100.00;64805.59;4975218;28;20038;-65
2021/09/01 09:28:07;;;;;;;39.58;19.58;;;;;;;-145.01;100.00;64805.59;4993196;28;20053;-65
2021/09/01 09:30:35;;;;;;;39.33;20.35;;;;;;;-145.01;100.00;64805.59;4992604;28;20035;-64
2021/09/01 09:33:21;;;;;;;37.22;20.20;;;;;;;-145.01;100.00;64805.59;4993244;28;20022;-66
2021/09/01 09:35:58;;;;;;;38.08;19.20;;;;;;;-145.01;100.00;64805.59;4996153;28;20030;-66
2021/09/01 09:38:31;;;;;;;33.42;19.35;;;;;;;-145.01;100.00;64805.59;4995957;28;20108;-66
2021/09/01 09:40:57;;;;;;;50.58;20.05;;;;;;;-145.01;100.00;64805.59;4995308;28;20035;-65
2021/09/01 09:43:23;;;;;;;43.67;19.45;;;;;;;-145.01;100.00;64805.59;4997103;28;20035;-65
2021/09/01 09:45:49;;;;;;;36.33;18.35;;;;;;;-145.01;100.00;64805.59;4995155;28;20085;-65
2021/09/01 09:48:29;;;;;;;45.03;18.27;;;;;;;-145.01;100.00;64805.59;4979606;28;20027;-65
2021/09/01 09:50:55;;;;;;;35.05;18.85;;;;;;;-145.01;100.00;64805.59;4995337;28;20057;-65
2021/09/01 09:53:34;;;;;;;39.85;17.95;;;;;;;-145.01;100.00;64805.59;4996674;28;20387;-65
2021/09/01 09:56:26;;;;;;;38.92;19.13;;;;;;;-145.01;100.00;64805.59;4996123;28;20035;-65
2021/09/01 09:58:56;;;;;;;33.90;16.05;;;;;;;-145.01;100.00;64805.59;4995975;28;20038;-66
2021/09/01 10:01:22;;;;;;;;;;;;;;;-145.01;100.00;64805.59;4995325;28;20118;-64
2021/09/01 10:03:48;;;;;;;37.83;18.15;;;;;;;-145.01;100.00;64805.59;4996535;28;19956;-65
2021/09/01 10:06:16;;;;;;;33.90;19.75;;;;;;;-145.01;100.00;64805.59;4996186;28;20044;-65
2021/09/01 10:08:41;;;;;;;42.35;19.70;;;;;;;-145.01;100.00;64805.59;4996313;28;20423;-65
2021/09/01 10:11:09;;;;;;;41.58;19.50;;;;;;;-145.01;100.00;64805.59;4996030;28;20549;-66
2021/09/01 10:13:36;;;;;;;38.08;18.67;;;;;;;-145.01;100.00;64805.59;4995634;28;20062;-66
2021/09/01 10:16:21;;;;;;;38.17;18.77;;;;;;;-145.01;100.00;64805.59;4978309;28;20126;-65
2021/09/01 10:18:56;;;;;;;34.10;18.25;;;;;;;-145.01;100.00;64805.59;4994995;28;20057;-65
2021/09/01 10:21:26;;;;;;;33.42;16.77;;;;;;;-145.01;100.00;64805.59;4994332;28;20030;-65
2021/09/01 10:23:51;;;;;;;35.50;17.80;;;;;;;-145.01;100.00;64805.59;4979122;28;20033;-65
2021/09/01 10:26:32;;;;;;;37.75;17.55;;;;;;;-145.01;100.00;64805.59;4995809;28;20462;-65
2021/09/01 10:28:58;;;;;;;29.15;16.73;;;;;;;-145.01;100.00;64805.59;4996131;28;20452;-65
2021/09/01 10:31:31;;;;;;;28.10;14.73;;;;;;;-145.01;100.00;64805.59;4995658;28;20031;-65
2021/09/01 10:34:02;;;;;;;27.23;14.77;;;;;;;-145.01;100.00;64805.59;4994622;28;20480;-66
2021/09/01 10:36:28;;;;;;;35.03;15.30;;;;;;;-145.01;100.00;64805.59;4995499;28;20397;-65
2021/09/01 10:38:55;;;;;;;45.85;16.40;;;;;;;-145.01;100.00;64805.59;4995657;28;20030;-65
2021/09/01 10:41:27;;;;;;;28.40;15.80;;;;;;;-145.01;100.00;64805.59;4995406;28;20034;-65
2021/09/01 10:43:56;;;;;;;34.67;17.25;;;;;;;-145.01;100.00;64805.59;4994378;28;20030;-65
2021/09/01 10:46:22;;;;;;;31.85;14.65;;;;;;;-145.01;100.00;64805.59;4993424;28;20041;-65
2021/09/01 10:49:00;;;;;;;23.60;12.07;;;;;;;-145.01;100.00;64805.59;4995973;28;20018;-65